createdAt,value
2019-04-22T00:01:35.027Z,45.20
2019-04-22T00:04:11.102Z,45.30
2019-04-22T00:07:03.260Z,45.10
2019-04-22T00:09:40.454Z,45.30
2019-04-22T00:12:14.279Z,45.30
2019-04-22T00:14:35.086Z,45.30
2019-04-22T00:17:16.901Z,45.50
2019-04-22T00:19:55.591Z,45.40
2019-04-22T00:22:23.346Z,45.30
2019-04-22T00:24:55.897Z,45.30
2019-04-22T00:27:28.127Z,45.20
2019-04-22T00:32:36.576Z,45.20
2019-04-22T00:35:09.730Z,45.20
2019-04-22T00:37:43.797Z,45.20
2019-04-22T00:40:25.278Z,45.20
2019-04-22T00:42:50.310Z,45.20
2019-04-22T00:45:19.426Z,45.10
2019-04-22T00:47:55.843Z,45.10
2019-04-22T00:50:23.814Z,45.90
2019-04-22T00:53:04.209Z,45.40
2019-04-22T00:55:34.270Z,45.30
2019-04-22T00:58:02.846Z,45.40
2019-04-22T01:00:40.575Z,45.50
2019-04-22T01:03:18.062Z,45.50
2019-04-22T01:05:40.417Z,45.50
2019-04-22T01:08:25.331Z,45.50
2019-04-22T01:10:45.246Z,45.60
2019-04-22T01:13:21.721Z,45.60
2019-04-22T01:16:02.593Z,45.60
2019-04-22T01:18:23.105Z,45.60
2019-04-22T01:23:29.606Z,45.30
2019-04-22T01:25:57.061Z,45.10
2019-04-22T01:28:23.428Z,45.10
2019-04-22T01:30:51.703Z,45.00
2019-04-22T01:33:23.782Z,45.10
2019-04-22T01:36:08.159Z,45.50
2019-04-22T01:38:46.880Z,45.40
2019-04-22T01:41:23.376Z,45.30
2019-04-22T01:43:59.056Z,45.30
2019-04-22T01:46:25.244Z,45.20
2019-04-22T01:48:59.516Z,45.30
2019-04-22T01:51:40.624Z,45.30
2019-04-22T01:54:05.565Z,45.20
2019-04-22T01:56:40.950Z,45.30
2019-04-22T01:58:58.953Z,45.30
2019-04-22T02:01:48.409Z,45.20
2019-04-22T02:04:17.848Z,45.30
2019-04-22T02:06:48.231Z,45.30
2019-04-22T02:09:28.813Z,45.30
2019-04-22T02:12:07.358Z,45.40
2019-04-22T02:14:26.973Z,45.40
2019-04-22T02:16:56.998Z,45.40
2019-04-22T02:19:31.804Z,45.50
2019-04-22T02:22:00.941Z,45.50
2019-04-22T02:24:39.751Z,45.50
2019-04-22T02:27:14.076Z,45.50
2019-04-22T02:29:44.273Z,45.60
2019-04-22T02:32:21.252Z,45.70
2019-04-22T02:37:18.952Z,45.80
2019-04-22T02:39:54.979Z,45.80
2019-04-22T02:42:21.560Z,45.80
2019-04-22T02:44:53.262Z,45.80
2019-04-22T02:55:11.560Z,45.30
2019-04-22T02:57:39.978Z,45.20
2019-04-22T03:05:35.161Z,45.10
2019-04-22T03:07:58.194Z,45.20
2019-04-22T03:10:30.969Z,45.30
2019-04-22T03:13:00.835Z,45.30
2019-04-22T03:15:30.008Z,45.30
2019-04-22T03:18:20.034Z,45.30
2019-04-22T03:20:33.561Z,45.30
2019-04-22T03:23:17.688Z,45.30
2019-04-22T03:28:14.715Z,45.20
2019-04-22T03:30:58.206Z,45.30
2019-04-22T03:35:50.091Z,46.00
2019-04-22T03:38:31.211Z,45.40
2019-04-22T03:41:05.548Z,45.40
2019-04-22T03:43:35.712Z,45.60
2019-04-22T03:45:57.179Z,45.70
2019-04-22T03:48:37.980Z,45.60
2019-04-22T03:51:16.419Z,45.70
2019-04-22T03:53:38.314Z,45.70
2019-04-22T03:56:18.487Z,45.70
2019-04-22T03:58:54.389Z,45.70
2019-04-22T04:01:21.045Z,45.80
2019-04-22T04:03:50.675Z,45.80
2019-04-22T04:06:39.955Z,45.30
2019-04-22T04:08:51.241Z,45.90
2019-04-22T04:11:39.017Z,46.00
2019-04-22T04:14:05.376Z,45.90
2019-04-22T04:19:25.346Z,45.60
2019-04-22T04:24:28.661Z,45.40
2019-04-22T04:34:28.307Z,44.90
2019-04-22T04:37:22.804Z,45.10
2019-04-22T04:39:26.594Z,45.20
2019-04-22T04:42:07.314Z,45.30
2019-04-22T04:47:11.489Z,45.20
2019-04-22T04:49:52.721Z,45.20
2019-04-22T04:52:17.012Z,45.20
2019-04-22T04:57:16.866Z,45.30
2019-04-22T05:00:14.598Z,45.30
2019-04-22T05:02:22.577Z,45.40
2019-04-22T05:05:08.297Z,45.40
2019-04-22T05:07:18.651Z,45.50
2019-04-22T05:09:59.996Z,45.50
2019-04-22T05:15:04.205Z,45.50
2019-04-22T05:17:37.451Z,45.60
2019-04-22T05:20:13.476Z,45.60
2019-04-22T05:22:37.730Z,45.60
2019-04-22T05:25:15.127Z,45.60
2019-04-22T05:27:42.614Z,45.60
2019-04-22T05:32:43.229Z,45.60
2019-04-22T05:35:25.139Z,45.60
2019-04-22T05:37:49.986Z,45.70
2019-04-22T05:40:23.019Z,45.60
2019-04-22T05:42:56.431Z,45.70
2019-04-22T05:45:24.760Z,45.50
2019-04-22T05:47:56.236Z,45.50
2019-04-22T05:50:26.950Z,45.20
2019-04-22T05:53:00.495Z,45.10
2019-04-22T05:55:36.021Z,45.00
2019-04-22T05:58:10.394Z,44.90
2019-04-22T06:01:21.746Z,45.00
2019-04-22T06:03:16.647Z,44.90
2019-04-22T06:05:47.824Z,44.90
2019-04-22T06:08:19.710Z,44.80
2019-04-22T06:10:53.110Z,44.80
2019-04-22T06:13:17.712Z,44.90
2019-04-22T06:15:57.749Z,45.00
2019-04-22T06:21:05.217Z,45.10
2019-04-22T06:23:42.693Z,45.10
2019-04-22T06:26:35.903Z,45.10
2019-04-22T06:28:51.917Z,45.10
2019-04-22T06:31:17.013Z,45.30
2019-04-22T06:33:49.411Z,45.30
2019-04-22T06:36:26.333Z,45.30
2019-04-22T06:39:12.935Z,45.40
2019-04-22T06:41:44.221Z,45.40
2019-04-22T06:43:58.373Z,45.40
2019-04-22T06:49:02.993Z,45.50
2019-04-22T06:51:37.563Z,45.50
2019-04-22T06:54:07.796Z,45.60
2019-04-22T06:56:42.624Z,45.60
2019-04-22T06:59:14.316Z,45.60
2019-04-22T07:04:16.705Z,45.70
2019-04-22T07:06:56.471Z,45.60
2019-04-22T07:12:02.230Z,45.50
2019-04-22T07:14:22.370Z,45.50
2019-04-22T07:17:05.221Z,45.40
2019-04-22T07:19:35.408Z,45.40
2019-04-22T07:22:11.126Z,45.20
2019-04-22T07:24:47.797Z,45.00
2019-04-22T07:27:13.026Z,44.90
2019-04-22T07:29:46.691Z,44.80
2019-04-22T07:32:17.205Z,44.80
2019-04-22T07:34:56.857Z,44.80
2019-04-22T07:37:31.649Z,44.80
2019-04-22T07:39:55.179Z,44.80
2019-04-22T07:42:32.727Z,44.90
2019-04-22T07:47:58.497Z,45.10
2019-04-22T07:50:05.458Z,45.20
2019-04-22T07:52:43.449Z,45.80
2019-04-22T07:55:08.784Z,45.30
2019-04-22T07:57:50.129Z,45.40
2019-04-22T08:00:16.183Z,45.30
2019-04-22T08:02:53.326Z,45.40
2019-04-22T08:05:24.716Z,45.40
2019-04-22T08:08:05.354Z,45.40
2019-04-22T08:10:35.661Z,45.50
2019-04-22T08:12:59.315Z,45.50
2019-04-22T08:15:32.965Z,45.50
2019-04-22T08:18:02.928Z,45.50
2019-04-22T08:23:09.227Z,45.60
2019-04-22T08:25:43.108Z,45.70
2019-04-22T08:28:19.070Z,45.50
2019-04-22T08:30:47.443Z,45.50
2019-04-22T08:33:22.219Z,45.40
2019-04-22T08:38:37.692Z,45.30
2019-04-22T08:41:28.363Z,45.20
2019-04-22T08:43:57.399Z,45.30
2019-04-22T08:48:55.690Z,45.20
2019-04-22T08:56:45.646Z,45.10
2019-04-22T08:59:09.813Z,45.00
2019-04-22T09:01:54.668Z,44.80
2019-04-22T09:04:05.773Z,44.60
2019-04-22T09:07:02.432Z,44.60
2019-04-22T09:09:25.002Z,44.60
2019-04-22T09:11:57.675Z,44.70
2019-04-22T09:14:26.178Z,44.60
2019-04-22T09:16:56.125Z,44.60
2019-04-22T09:19:44.119Z,44.80
2019-04-22T09:22:00.514Z,45.00
2019-04-22T09:24:35.726Z,45.00
2019-04-22T09:27:10.114Z,45.00
2019-04-22T09:29:41.233Z,45.00
2019-04-22T09:32:15.336Z,45.00
2019-04-22T09:37:20.828Z,45.10
2019-04-22T09:40:00.965Z,45.10
2019-04-22T09:42:27.345Z,45.20
2019-04-22T09:44:51.891Z,45.20
2019-04-22T09:47:24.911Z,45.20
2019-04-22T09:50:03.359Z,45.10
2019-04-22T09:52:48.615Z,45.00
2019-04-22T09:55:12.935Z,44.90
2019-04-22T09:57:53.927Z,44.80
2019-04-22T10:00:08.965Z,44.80
2019-04-22T10:02:48.964Z,44.60
2019-04-22T10:05:11.476Z,44.60
2019-04-22T10:07:44.780Z,44.70
2019-04-22T10:10:34.827Z,44.70
2019-04-22T10:13:13.981Z,44.60
2019-04-22T10:15:26.734Z,44.60
2019-04-22T10:17:56.551Z,44.60
2019-04-22T10:20:36.356Z,44.60
2019-04-22T10:23:05.504Z,45.30
2019-04-22T10:25:35.103Z,44.60
2019-04-22T10:33:13.300Z,44.80
2019-04-22T10:35:25.298Z,44.90
2019-04-22T10:37:56.488Z,44.30
2019-04-22T10:40:30.567Z,44.90
2019-04-22T10:43:01.354Z,44.90
2019-04-22T10:45:32.441Z,44.90
2019-04-22T10:48:03.990Z,44.80
2019-04-22T10:51:01.010Z,44.90
2019-04-22T10:53:33.241Z,45.00
2019-04-22T10:56:05.189Z,45.00
2019-04-22T10:58:36.006Z,45.60
2019-04-22T11:01:07.425Z,45.20
2019-04-22T11:03:39.486Z,45.20
2019-04-22T11:06:11.592Z,45.30
2019-04-22T11:08:50.479Z,45.30
2019-04-22T11:11:30.199Z,45.30
2019-04-22T11:13:49.521Z,45.40
2019-04-22T11:16:21.436Z,45.40
2019-04-22T11:18:53.654Z,45.90
2019-04-22T11:21:25.414Z,45.40
2019-04-22T11:23:56.678Z,45.40
2019-04-22T11:26:28.305Z,45.40
2019-04-22T11:28:59.429Z,45.40
2019-04-22T11:31:30.589Z,45.50
2019-04-22T11:34:02.653Z,45.50
2019-04-22T11:36:34.535Z,45.50
2019-04-22T11:39:09.673Z,45.50
2019-04-22T11:41:40.230Z,45.40
2019-04-22T11:44:11.544Z,45.50
2019-04-22T11:46:43.224Z,45.50
2019-04-22T11:49:14.274Z,45.60
2019-04-22T11:51:45.660Z,45.60
2019-04-22T11:54:17.062Z,45.50
2019-04-22T11:56:49.270Z,45.50
2019-04-22T11:59:20.577Z,45.60
2019-04-22T12:01:52.882Z,45.50
2019-04-22T12:04:23.514Z,45.60
2019-04-22T12:06:55.738Z,45.60
2019-04-22T12:09:27.795Z,46.20
2019-04-22T12:11:59.985Z,45.60
2019-04-22T12:14:31.920Z,45.60
2019-04-22T12:17:03.575Z,45.60
2019-04-22T12:19:35.244Z,45.50
2019-04-22T12:22:07.246Z,45.70
2019-04-22T12:24:38.428Z,45.60
2019-04-22T12:27:10.537Z,45.70
2019-04-22T12:29:42.990Z,45.60
2019-04-22T12:32:13.692Z,45.60
2019-04-22T12:34:44.293Z,45.70
2019-04-22T12:37:27.365Z,46.40
2019-04-22T12:39:48.661Z,45.70
2019-04-22T12:42:21.480Z,45.80
2019-04-22T12:44:52.177Z,45.70
2019-04-22T12:47:24.320Z,45.90
2019-04-22T12:50:06.861Z,45.80
2019-04-22T12:52:37.342Z,45.80
2019-04-22T12:55:01.616Z,45.80
2019-04-22T12:57:32.666Z,45.80
2019-04-22T13:00:03.934Z,46.00
2019-04-22T13:02:34.846Z,45.90
2019-04-22T13:05:06.004Z,45.90
2019-04-22T13:07:38.024Z,45.90
2019-04-22T13:10:10.287Z,45.90
2019-04-22T13:12:40.996Z,46.00
2019-04-22T13:15:14.123Z,46.00
2019-04-22T13:17:46.261Z,45.90
2019-04-22T13:20:20.090Z,45.90
2019-04-22T13:22:50.588Z,45.90
2019-04-22T13:25:23.372Z,45.90
2019-04-22T13:27:55.197Z,46.00
2019-04-22T13:30:26.370Z,46.00
2019-04-22T13:32:58.627Z,46.00
2019-04-22T13:35:29.887Z,46.00
2019-04-22T13:38:01.231Z,46.00
2019-04-22T13:40:32.952Z,46.00
2019-04-22T13:43:04.925Z,46.10
2019-04-22T13:45:36.233Z,46.00
2019-04-22T13:48:24.602Z,46.00
2019-04-22T13:53:44.916Z,46.10
2019-04-22T13:56:07.220Z,46.10
2019-04-22T13:58:31.410Z,46.70
2019-04-22T14:00:50.162Z,46.10
2019-04-22T14:03:52.287Z,46.10
2019-04-22T14:06:24.826Z,46.20
2019-04-22T14:08:55.848Z,46.20
2019-04-22T14:11:36.681Z,46.20
2019-04-22T14:14:00.757Z,46.20
2019-04-22T14:16:33.037Z,46.20
2019-04-22T14:19:05.572Z,46.20
2019-04-22T14:21:36.818Z,46.30
2019-04-22T14:24:11.757Z,46.20
2019-04-22T14:26:51.682Z,46.20
2019-04-22T14:29:13.614Z,46.10
2019-04-22T14:31:44.959Z,46.30
2019-04-22T14:34:16.943Z,46.20
2019-04-22T14:36:48.159Z,46.20
2019-04-22T14:39:19.859Z,46.20
2019-04-22T14:42:12.381Z,46.20
2019-04-22T14:45:14.928Z,46.10
2019-04-22T14:47:19.585Z,46.20
2019-04-22T14:49:54.276Z,46.10
2019-04-22T14:52:24.769Z,46.70
2019-04-22T14:54:48.452Z,46.20
2019-04-22T14:57:07.386Z,46.20
2019-04-22T14:59:39.849Z,46.20
2019-04-22T15:02:11.860Z,46.10
2019-04-22T15:04:43.072Z,46.20
2019-04-22T15:07:15.013Z,46.10
2019-04-22T15:09:46.267Z,46.20
2019-04-22T15:12:27.784Z,46.10
2019-04-22T15:14:51.068Z,46.10
2019-04-22T15:17:38.849Z,46.10
2019-04-22T15:20:29.820Z,46.10
2019-04-22T15:23:02.305Z,46.10
2019-04-22T15:25:34.863Z,46.10
2019-04-22T15:28:05.884Z,46.10
2019-04-22T15:30:37.421Z,46.10
2019-04-22T15:33:09.713Z,46.10
2019-04-22T15:35:41.074Z,46.70
2019-04-22T15:38:13.115Z,46.10
2019-04-22T15:40:44.854Z,46.00
2019-04-22T15:43:17.018Z,46.10
2019-04-22T15:45:48.582Z,46.10
2019-04-22T15:48:21.206Z,46.10
2019-04-22T15:50:52.980Z,46.00
2019-04-22T15:53:25.407Z,46.00
2019-04-22T15:55:56.640Z,46.00
2019-04-22T15:58:28.151Z,46.00
2019-04-22T16:01:08.877Z,46.10
2019-04-22T16:03:32.344Z,46.00
2019-04-22T16:06:04.001Z,46.00
2019-04-22T16:08:37.347Z,46.00
2019-04-22T16:11:07.550Z,46.00
2019-04-22T16:13:40.053Z,46.10
2019-04-22T16:16:12.268Z,46.00
2019-04-22T16:18:44.412Z,46.00
2019-04-22T16:21:27.681Z,46.10
2019-04-22T16:24:16.068Z,46.10
2019-04-22T16:26:50.590Z,46.10
2019-04-22T16:29:23.319Z,46.00
2019-04-22T16:31:55.503Z,46.00
2019-04-22T16:34:27.235Z,46.00
2019-04-22T16:36:58.617Z,46.00
2019-04-22T16:39:29.355Z,45.90
2019-04-22T16:42:00.614Z,46.00
2019-04-22T16:44:32.367Z,46.00
2019-04-22T16:47:03.675Z,45.90
2019-04-22T16:49:34.514Z,46.00
2019-04-22T16:52:05.771Z,45.90
2019-04-22T16:54:36.950Z,45.90
2019-04-22T16:57:10.135Z,45.90
2019-04-22T16:59:42.648Z,45.90
2019-04-22T17:02:36.873Z,45.90
2019-04-22T17:05:19.865Z,45.90
2019-04-22T17:07:52.218Z,46.00
2019-04-22T17:10:23.761Z,46.00
2019-04-22T17:13:02.331Z,46.00
2019-04-22T17:15:27.349Z,46.00
2019-04-22T17:17:58.961Z,46.00
2019-04-22T17:20:31.224Z,45.90
2019-04-22T17:23:02.201Z,45.90
2019-04-22T17:25:34.179Z,45.90
2019-04-22T17:28:05.763Z,45.90
2019-04-22T17:30:37.308Z,45.90
2019-04-22T17:33:08.487Z,45.90
2019-04-22T17:35:40.507Z,45.90
2019-04-22T17:38:22.541Z,46.00
2019-04-22T17:41:01.474Z,45.90
2019-04-22T17:43:48.814Z,45.90
2019-04-22T17:46:23.379Z,45.90
2019-04-22T17:49:11.000Z,45.90
2019-04-22T17:52:01.645Z,45.90
2019-04-22T17:54:15.343Z,45.90
2019-04-22T17:56:43.547Z,45.90
2019-04-22T17:59:20.987Z,45.90
2019-04-22T18:01:43.588Z,45.90
2019-04-22T18:04:04.912Z,45.90
2019-04-22T18:07:03.853Z,46.00
2019-04-22T18:09:49.016Z,46.00
2019-04-22T18:12:16.282Z,46.00
2019-04-22T18:17:13.505Z,46.20
2019-04-22T18:19:40.055Z,45.90
2019-04-22T18:22:06.426Z,45.80
2019-04-22T18:24:43.645Z,45.80
2019-04-22T18:27:35.621Z,45.80
2019-04-22T18:29:52.093Z,45.80
2019-04-22T18:32:17.692Z,45.90
2019-04-22T18:34:51.530Z,45.90
2019-04-22T18:37:25.165Z,45.90
2019-04-22T18:40:03.371Z,45.90
2019-04-22T18:42:32.889Z,45.70
2019-04-22T18:45:23.311Z,45.80
2019-04-22T18:47:43.224Z,45.70
2019-04-22T18:50:08.491Z,45.70
2019-04-22T18:53:11.698Z,45.70
2019-04-22T18:55:44.299Z,45.70
2019-04-22T18:58:14.514Z,45.80
2019-04-22T19:00:36.384Z,45.70
2019-04-22T19:03:15.691Z,45.80
2019-04-22T19:06:03.524Z,45.70
2019-04-22T19:08:30.409Z,45.70
2019-04-22T19:11:12.634Z,45.70
2019-04-22T19:16:27.824Z,45.70
2019-04-22T19:18:50.467Z,45.70
2019-04-22T19:21:17.696Z,45.70
2019-04-22T19:23:52.114Z,45.70
2019-04-22T19:26:37.792Z,45.80
2019-04-22T19:28:54.100Z,45.70
2019-04-22T19:31:28.575Z,45.70
2019-04-22T19:34:03.044Z,45.70
2019-04-22T19:36:36.459Z,45.80
2019-04-22T19:39:04.418Z,45.90
2019-04-22T19:41:42.249Z,45.90
2019-04-22T19:44:17.629Z,45.80
2019-04-22T19:46:55.722Z,45.70
2019-04-22T19:49:29.076Z,45.80
2019-04-22T19:52:02.513Z,45.70
2019-04-22T19:54:21.857Z,45.70
2019-04-22T19:56:48.530Z,45.70
2019-04-22T19:59:22.463Z,45.60
2019-04-22T20:02:25.378Z,45.60
2019-04-22T20:05:16.452Z,45.70
2019-04-22T20:07:46.907Z,45.60
2019-04-22T20:10:22.415Z,45.60
2019-04-22T20:12:48.655Z,45.60
2019-04-22T20:15:18.497Z,45.60
2019-04-22T20:18:19.186Z,45.50
2019-04-22T20:20:33.002Z,45.60
2019-04-22T20:22:57.571Z,45.50
2019-04-22T20:25:31.347Z,45.60
2019-04-22T20:28:07.572Z,45.60
2019-04-22T20:30:39.941Z,45.60
2019-04-22T20:33:12.098Z,45.60
2019-04-22T20:35:45.246Z,45.70
2019-04-22T20:38:16.853Z,45.60
2019-04-22T20:40:54.299Z,45.60
2019-04-22T20:43:30.631Z,45.70
2019-04-22T20:45:57.712Z,45.70
2019-04-22T20:48:22.310Z,45.60
2019-04-22T20:50:59.273Z,45.60
2019-04-22T20:53:36.539Z,45.50
2019-04-22T20:56:08.782Z,45.50
2019-04-22T20:58:42.490Z,45.50
2019-04-22T21:01:03.843Z,45.60
2019-04-22T21:03:33.265Z,46.00
2019-04-22T21:06:14.853Z,45.50
2019-04-22T21:08:48.709Z,45.50
2019-04-22T21:11:19.642Z,45.40
2019-04-22T21:13:52.939Z,45.60
2019-04-22T21:16:26.941Z,45.50
2019-04-22T21:18:57.823Z,46.20
2019-04-22T21:21:31.669Z,45.70
2019-04-22T21:23:56.954Z,45.60
2019-04-22T21:26:35.367Z,45.50
2019-04-22T21:29:07.252Z,45.50
2019-04-22T21:31:46.468Z,45.50
2019-04-22T21:34:10.255Z,45.40
2019-04-22T21:36:50.623Z,45.40
2019-04-22T21:39:17.480Z,45.50
2019-04-22T21:41:52.840Z,45.60
2019-04-22T21:44:26.734Z,45.50
2019-04-22T21:47:04.406Z,45.60
2019-04-22T21:49:38.994Z,45.60
2019-04-22T21:52:08.046Z,45.60
2019-04-22T21:54:45.326Z,45.70
2019-04-22T21:57:26.545Z,45.60
2019-04-22T21:59:47.430Z,45.60
2019-04-22T22:02:28.236Z,45.70
2019-04-22T22:04:52.999Z,45.70
2019-04-22T22:07:13.898Z,45.70
2019-04-22T22:10:01.400Z,45.70
2019-04-22T22:12:37.738Z,45.70
2019-04-22T22:15:07.270Z,45.60
2019-04-22T22:17:35.547Z,45.60
2019-04-22T22:20:05.885Z,45.50
2019-04-22T22:22:52.441Z,45.50
2019-04-22T22:25:16.412Z,45.40
2019-04-22T22:27:43.229Z,45.40
2019-04-22T22:30:45.341Z,45.40
2019-04-22T22:32:54.793Z,45.40
2019-04-22T22:35:27.853Z,45.40
2019-04-22T22:37:57.505Z,45.40
2019-04-22T22:40:18.225Z,45.40
2019-04-22T22:42:49.345Z,45.50
2019-04-22T22:45:28.055Z,45.50
2019-04-22T22:48:18.880Z,45.40
2019-04-22T22:50:43.058Z,45.40
2019-04-22T22:55:45.881Z,45.30
2019-04-22T22:58:22.207Z,45.50
2019-04-22T23:00:50.484Z,45.30
2019-04-22T23:06:03.225Z,45.40
2019-04-22T23:08:34.181Z,45.50
2019-04-22T23:11:05.370Z,45.50
2019-04-22T23:13:40.383Z,45.50
2019-04-22T23:16:00.982Z,45.60
2019-04-22T23:18:21.823Z,45.60
2019-04-22T23:20:54.078Z,45.60
2019-04-22T23:23:45.356Z,45.70
2019-04-22T23:26:41.613Z,45.80
2019-04-22T23:29:25.423Z,45.70
2019-04-22T23:32:00.248Z,45.80
2019-04-22T23:34:32.901Z,45.80
2019-04-22T23:37:19.118Z,45.70
2019-04-22T23:39:58.649Z,45.60
2019-04-22T23:42:27.393Z,45.50
2019-04-22T23:45:07.263Z,45.50
2019-04-22T23:47:38.550Z,45.60
2019-04-22T23:50:12.442Z,45.50
2019-04-22T23:52:54.006Z,45.50
2019-04-22T23:55:26.198Z,45.60
2019-04-22T23:58:13.460Z,45.50
